Time;durP1;ratioP1;P1;durP2;ratioP2;P2;SDS_P1;SDS_P2;PMS_P1;PMS_P2;Temp;Humidity;BMP_temperature;BMP_pressure;BME280_temperature;BME280_humidity;BME280_pressure;Samples;Min_cycle;Max_cycle;Signal;HPM_P1;HPM_P2
2021/12/26 00:00:49;;;;;;;6.72;3.15;;;-5.90;99.90;;;;;;5073516;28;20037;-74
2021/12/26 00:03:15;;;;;;;10.35;3.20;;;-5.80;99.90;;;;;;5018204;28;20041;-76
2021/12/26 00:05:41;;;;;;;7.40;3.10;;;-5.80;99.90;;;;;;5066313;28;20099;-75
2021/12/26 00:08:07;;;;;;;5.22;2.33;;;-5.80;99.90;;;;;;5042911;28;20041;-76
2021/12/26 00:10:33;;;;;;;8.13;2.97;;;-5.80;99.90;;;;;;5077400;28;20036;-76
2021/12/26 00:12:58;;;;;;;7.43;3.00;;;-5.80;99.90;;;;;;5035745;28;20609;-76
2021/12/26 00:15:25;;;;;;;9.82;3.28;;;-5.90;99.90;;;;;;5061143;28;20068;-76
2021/12/26 00:17:51;;;;;;;6.80;2.65;;;-5.80;99.90;;;;;;5035877;28;20034;-74
2021/12/26 00:20:18;;;;;;;6.78;3.22;;;-5.80;99.90;;;;;;5040205;28;20037;-77
2021/12/26 00:22:44;;;;;;;8.25;2.58;;;-5.80;99.90;;;;;;5043050;28;20437;-77
2021/12/26 00:25:12;;;;;;;7.85;2.60;;;-5.80;99.90;;;;;;5041757;28;20071;-76
2021/12/26 00:27:38;;;;;;;8.50;3.50;;;-5.80;99.90;;;;;;5049045;28;20043;-77
2021/12/26 00:30:07;;;;;;;8.25;3.55;;;-5.80;99.90;;;;;;5047629;28;20045;-75
2021/12/26 00:32:33;;;;;;;10.32;3.80;;;-5.80;99.90;;;;;;5064711;28;20111;-76
2021/12/26 00:34:59;;;;;;;6.25;2.88;;;-5.80;99.90;;;;;;5055253;28;20439;-76
2021/12/26 00:37:25;;;;;;;6.00;3.20;;;-5.90;99.90;;;;;;5026574;28;20037;-74
2021/12/26 00:39:51;;;;;;;8.63;3.00;;;-5.80;99.90;;;;;;5061589;28;20037;-75
2021/12/26 00:42:17;;;;;;;3.58;2.30;;;-5.80;99.90;;;;;;5034168;28;20076;-75
2021/12/26 00:44:42;;;;;;;7.50;3.00;;;-5.80;99.90;;;;;;5050655;28;20083;-75
2021/12/26 00:47:11;;;;;;;4.35;2.67;;;-5.70;99.90;;;;;;5036535;28;20132;-76
2021/12/26 00:49:37;;;;;;;4.53;2.10;;;-5.60;99.90;;;;;;5014563;28;20041;-76
2021/12/26 00:52:04;;;;;;;4.68;1.45;;;-5.70;99.90;;;;;;5038005;28;20052;-74
2021/12/26 00:54:30;;;;;;;8.60;2.85;;;-5.60;99.90;;;;;;5027972;28;20036;-76
2021/12/26 00:56:56;;;;;;;9.95;2.50;;;-5.60;99.90;;;;;;5034814;28;20357;-76
2021/12/26 00:59:23;;;;;;;10.02;2.63;;;-5.70;99.90;;;;;;5041214;28;20055;-75
2021/12/26 01:01:49;;;;;;;9.98;2.90;;;-5.70;99.90;;;;;;5041705;28;20058;-76
2021/12/26 01:04:15;;;;;;;7.78;2.72;;;-5.70;99.90;;;;;;5048032;28;20391;-76
2021/12/26 01:06:43;;;;;;;5.47;2.78;;;-5.70;99.90;;;;;;5042884;28;20461;-76
2021/12/26 01:09:11;;;;;;;7.47;3.55;;;-5.70;99.90;;;;;;5060256;28;20049;-75
2021/12/26 01:11:41;;;;;;;4.93;2.78;;;-5.80;99.90;;;;;;5044782;28;20036;-75
2021/12/26 01:14:11;;;;;;;7.65;2.78;;;-5.80;99.90;;;;;;5049456;28;20503;-74
2021/12/26 01:16:37;;;;;;;6.95;2.97;;;-5.80;99.90;;;;;;5043821;28;20039;-75
2021/12/26 01:19:12;;;;;;;5.70;2.72;;;-5.80;99.90;;;;;;5043459;28;20040;-75
2021/12/26 01:21:38;;;;;;;7.45;3.03;;;-5.90;99.90;;;;;;5041227;28;20071;-76
2021/12/26 01:24:09;;;;;;;8.65;3.20;;;-5.90;99.90;;;;;;5042613;28;20120;-77
2021/12/26 01:26:35;;;;;;;6.15;2.70;;;-5.90;99.90;;;;;;5050678;28;20123;-75
2021/12/26 01:29:02;;;;;;;7.97;2.72;;;-5.90;99.90;;;;;;5035737;28;20076;-76
2021/12/26 01:31:28;;;;;;;7.00;2.88;;;-6.00;99.90;;;;;;5046671;28;20055;-76
2021/12/26 01:33:57;;;;;;;8.00;2.38;;;-6.00;99.90;;;;;;5078726;28;20397;-76
2021/12/26 01:36:25;;;;;;;6.38;2.38;;;-6.00;99.90;;;;;;5039221;28;20112;-76
2021/12/26 01:38:51;;;;;;;6.53;2.63;;;-5.90;99.90;;;;;;5042054;28;20044;-76
2021/12/26 01:41:18;;;;;;;5.03;2.20;;;-5.90;99.90;;;;;;5074931;28;20045;-76
2021/12/26 01:43:46;;;;;;;3.00;2.08;;;-6.00;99.90;;;;;;5024215;28;20489;-74
2021/12/26 01:46:13;;;;;;;3.53;1.45;;;-6.00;99.90;;;;;;5020065;28;20045;-75
2021/12/26 01:48:39;;;;;;;5.90;2.33;;;-5.90;99.90;;;;;;5054417;28;20045;-76
2021/12/26 01:51:05;;;;;;;6.10;2.28;;;-5.90;99.90;;;;;;5053782;28;20177;-74
2021/12/26 01:53:37;;;;;;;4.40;1.90;;;-5.90;99.90;;;;;;5049275;28;20044;-76
2021/12/26 01:56:09;;;;;;;4.68;2.05;;;-5.90;99.90;;;;;;5058451;28;20480;-76
2021/12/26 01:58:36;;;;;;;4.68;2.22;;;-6.00;99.90;;;;;;5044331;28;20481;-75
2021/12/26 02:01:28;;;;;;;3.97;2.10;;;-5.90;99.90;;;;;;5022459;28;20033;-75
2021/12/26 02:03:54;;;;;;;3.72;2.00;;;-5.90;99.90;;;;;;5057438;28;20416;-75
2021/12/26 02:06:21;;;;;;;4.25;2.35;;;-6.00;99.90;;;;;;5026391;28;20041;-78
2021/12/26 02:08:47;;;;;;;4.50;1.88;;;-6.00;99.90;;;;;;5023450;28;20120;-75
2021/12/26 02:11:13;;;;;;;6.40;2.17;;;-5.90;99.90;;;;;;5012915;28;20049;-77
2021/12/26 02:13:40;;;;;;;4.40;2.40;;;-5.90;99.90;;;;;;5018624;28;20116;-77
2021/12/26 02:16:06;;;;;;;6.95;2.30;;;-5.90;99.90;;;;;;5012109;28;20068;-75
2021/12/26 02:18:32;;;;;;;4.40;2.40;;;-5.90;99.90;;;;;;5017823;28;20037;-74
2021/12/26 02:24:10;;;;;;;6.05;2.10;;;-5.90;99.90;;;;;;5052820;28;20049;-78
2021/12/26 02:29:15;;;;;;;6.07;2.38;;;-6.00;99.90;;;;;;5078854;28;20048;-75
2021/12/26 02:31:41;;;;;;;6.15;2.00;;;-5.80;99.90;;;;;;5062241;28;20040;-76
2021/12/26 02:34:06;;;;;;;5.65;2.38;;;-5.90;99.90;;;;;;5046984;28;20131;-75
2021/12/26 02:36:32;;;;;;;8.63;2.58;;;-5.90;99.90;;;;;;5046108;28;20063;-75
2021/12/26 02:39:16;;;;;;;2.53;1.67;;;-5.90;99.90;;;;;;5043444;28;20460;-76
2021/12/26 02:41:43;;;;;;;4.70;2.07;;;-5.90;99.90;;;;;;5027435;28;20400;-75
2021/12/26 02:44:09;;;;;;;5.30;2.10;;;-5.90;99.90;;;;;;5046451;28;20048;-74
2021/12/26 02:46:35;;;;;;;4.35;1.60;;;-5.90;99.90;;;;;;5070871;28;20044;-75
2021/12/26 02:49:00;;;;;;;5.07;2.20;;;-5.80;99.90;;;;;;5050786;28;20029;-75
2021/12/26 02:51:26;;;;;;;3.08;1.58;;;-5.80;99.90;;;;;;5069541;28;20037;-76
2021/12/26 02:53:52;;;;;;;3.50;2.20;;;-5.80;99.90;;;;;;5030223;28;20055;-76
2021/12/26 02:56:19;;;;;;;4.22;2.00;;;-5.80;99.90;;;;;;5061268;28;20409;-75
2021/12/26 02:58:45;;;;;;;3.72;1.70;;;-5.90;99.90;;;;;;5051703;28;20053;-75
2021/12/26 03:01:15;;;;;;;5.28;1.88;;;-5.90;99.90;;;;;;5039789;28;20059;-75
2021/12/26 03:03:41;;;;;;;5.20;2.45;;;-5.90;99.90;;;;;;5038324;28;20042;-76
2021/12/26 03:06:19;;;;;;;5.63;1.90;;;-5.90;99.90;;;;;;5031006;28;20128;-76
2021/12/26 03:08:47;;;;;;;4.10;1.83;;;-5.90;99.90;;;;;;5061140;28;20033;-76
2021/12/26 03:11:14;;;;;;;4.20;1.98;;;-5.90;99.90;;;;;;5074730;28;20048;-76
2021/12/26 03:13:40;;;;;;;4.78;2.35;;;-5.90;99.90;;;;;;5057168;28;20041;-77
2021/12/26 03:16:06;;;;;;;3.40;1.45;;;-5.90;99.90;;;;;;5053513;28;20194;-76
2021/12/26 03:18:31;;;;;;;2.33;1.33;;;-5.90;99.90;;;;;;5083306;28;20174;-76
2021/12/26 03:20:57;;;;;;;5.63;2.38;;;-5.90;99.90;;;;;;5047466;28;20033;-77
2021/12/26 03:23:25;;;;;;;3.70;2.10;;;-5.90;99.90;;;;;;5045624;28;20066;-77
2021/12/26 03:25:58;;;;;;;4.72;2.00;;;-5.90;99.90;;;;;;5048747;28;20075;-75
2021/12/26 03:28:25;;;;;;;3.80;1.65;;;-5.90;99.90;;;;;;5034818;28;20045;-76
2021/12/26 03:30:52;;;;;;;6.20;2.00;;;-6.00;99.90;;;;;;5031278;28;20127;-76
2021/12/26 03:33:20;;;;;;;5.97;2.20;;;-6.00;99.90;;;;;;5038579;28;20045;-76
2021/12/26 03:35:46;;;;;;;3.33;1.85;;;-6.00;99.90;;;;;;5043862;28;20072;-75
2021/12/26 03:38:13;;;;;;;6.75;2.17;;;-6.00;99.90;;;;;;5066307;28;20075;-75
2021/12/26 03:40:40;;;;;;;5.07;1.88;;;-6.00;99.90;;;;;;5047187;28;20045;-75
2021/12/26 03:43:06;;;;;;;2.65;1.42;;;-6.00;99.90;;;;;;5046498;28;20552;-76
2021/12/26 03:45:32;;;;;;;2.60;1.80;;;-5.10;99.90;;;;;;5082177;28;20254;-76
2021/12/26 03:47:58;;;;;;;3.28;1.88;;;-6.00;99.90;;;;;;5040641;28;20048;-76
2021/12/26 03:50:27;;;;;;;4.20;1.90;;;-6.00;99.90;;;;;;5065761;28;20045;-75
2021/12/26 03:52:56;;;;;;;3.13;1.52;;;-6.10;99.90;;;;;;5047951;28;20055;-76
2021/12/26 03:55:25;;;;;;;3.67;1.98;;;-6.00;99.90;;;;;;5082843;28;20535;-75
2021/12/26 03:57:52;;;;;;;4.60;2.10;;;-6.10;99.90;;;;;;5049165;28;20052;-75
2021/12/26 04:00:19;;;;;;;2.92;1.73;;;-6.10;99.90;;;;;;5049242;28;20063;-77
2021/12/26 04:02:45;;;;;;;3.70;1.65;;;-6.10;99.90;;;;;;5082766;28;20174;-76
2021/12/26 04:05:13;;;;;;;4.95;2.30;;;-6.00;99.90;;;;;;5050311;28;20434;-76
2021/12/26 04:07:39;;;;;;;4.13;2.10;;;-6.10;99.90;;;;;;5034065;28;20041;-75
2021/12/26 04:10:06;;;;;;;4.70;2.20;;;-6.10;99.90;;;;;;5033766;28;20147;-75
2021/12/26 04:12:36;;;;;;;4.90;2.08;;;-6.10;99.90;;;;;;5016597;28;20048;-76
2021/12/26 04:15:08;;;;;;;4.93;2.17;;;-6.20;99.90;;;;;;5031955;28;20114;-75
2021/12/26 04:17:33;;;;;;;4.00;1.95;;;-6.20;99.90;;;;;;5055917;28;20049;-76
2021/12/26 04:19:59;;;;;;;5.03;2.03;;;-6.20;99.90;;;;;;5047837;28;20047;-77
2021/12/26 04:22:25;;;;;;;4.45;2.25;;;-6.20;99.90;;;;;;5051100;28;20526;-74
2021/12/26 04:24:51;;;;;;;6.13;2.08;;;-6.20;99.90;;;;;;5063570;28;20056;-78
2021/12/26 04:27:16;;;;;;;5.75;1.92;;;-6.20;99.90;;;;;;5043154;28;20139;-76
2021/12/26 04:29:42;;;;;;;3.30;1.90;;;-6.20;99.90;;;;;;5066314;28;20032;-75
2021/12/26 04:32:08;;;;;;;5.95;1.83;;;-6.30;99.90;;;;;;5048809;28;20558;-75
2021/12/26 04:34:33;;;;;;;5.65;2.10;;;-6.20;99.90;;;;;;5060303;28;20542;-75
2021/12/26 04:36:59;;;;;;;5.68;2.00;;;-6.30;99.90;;;;;;5064469;28;20053;-74
2021/12/26 04:39:25;;;;;;;6.03;2.40;;;-6.30;99.90;;;;;;5076758;28;20037;-75
2021/12/26 04:41:51;;;;;;;4.55;1.80;;;-6.40;99.90;;;;;;5061574;28;20045;-75
2021/12/26 04:44:16;;;;;;;7.13;2.28;;;-6.40;99.90;;;;;;5043901;28;20036;-74
2021/12/26 04:46:43;;;;;;;4.90;2.38;;;-6.40;99.90;;;;;;5013919;28;20107;-74
2021/12/26 04:49:09;;;;;;;4.28;2.00;;;-6.40;99.90;;;;;;5029734;28;20339;-74
2021/12/26 04:51:35;;;;;;;4.55;2.00;;;-6.40;99.90;;;;;;5061360;28;20059;-74
2021/12/26 04:54:00;;;;;;;5.00;2.20;;;-6.50;99.90;;;;;;5051026;28;20040;-74
2021/12/26 04:56:26;;;;;;;6.60;2.20;;;-6.50;99.90;;;;;;5073109;28;20116;-74
2021/12/26 04:58:52;;;;;;;4.40;2.08;;;-6.50;99.90;;;;;;5067818;28;20081;-75
2021/12/26 05:01:17;;;;;;;4.60;1.92;;;-6.50;99.90;;;;;;5049757;28;20033;-75
2021/12/26 05:03:43;;;;;;;5.93;2.33;;;-6.60;99.90;;;;;;5067616;28;20036;-74
2021/12/26 05:06:09;;;;;;;6.03;2.08;;;-6.60;99.90;;;;;;5061920;28;20461;-74
2021/12/26 05:08:35;;;;;;;5.38;2.35;;;-6.60;99.90;;;;;;5030746;28;20202;-75
2021/12/26 05:11:00;;;;;;;3.88;1.63;;;-6.60;99.90;;;;;;5030019;28;20102;-75
2021/12/26 05:13:26;;;;;;;5.10;2.00;;;-6.60;99.90;;;;;;5082817;28;20037;-75
2021/12/26 05:15:52;;;;;;;5.57;2.40;;;-6.60;99.90;;;;;;5069768;28;20047;-74
2021/12/26 05:18:17;;;;;;;4.65;2.08;;;-6.60;99.90;;;;;;5041620;28;20121;-74
2021/12/26 05:20:44;;;;;;;4.32;2.35;;;-6.60;99.90;;;;;;5035095;28;20460;-75
2021/12/26 05:23:10;;;;;;;5.72;1.90;;;-5.80;99.90;;;;;;5084248;28;20044;-74
2021/12/26 05:25:35;;;;;;;4.05;2.35;;;-6.60;99.90;;;;;;5075065;28;20051;-74
2021/12/26 05:28:01;;;;;;;4.32;2.20;;;-6.60;99.90;;;;;;5082060;28;20036;-75
2021/12/26 05:30:27;;;;;;;4.93;2.25;;;-6.60;99.90;;;;;;5068317;28;20041;-75
2021/12/26 05:32:53;;;;;;;5.85;2.20;;;-6.60;99.90;;;;;;5069190;28;20059;-76
2021/12/26 05:35:19;;;;;;;6.68;2.10;;;-6.60;99.90;;;;;;5087376;28;20045;-76
2021/12/26 05:37:46;;;;;;;3.88;2.00;;;-6.60;99.90;;;;;;5057729;28;20071;-76
2021/12/26 05:40:13;;;;;;;3.70;2.03;;;-6.70;99.90;;;;;;5071956;28;20111;-75
2021/12/26 05:42:39;;;;;;;6.60;2.33;;;-6.60;99.90;;;;;;5071693;28;20052;-74
2021/12/26 05:45:07;;;;;;;4.78;2.10;;;-6.70;99.90;;;;;;5059608;28;20103;-76
2021/12/26 05:47:33;;;;;;;5.28;2.30;;;-6.70;99.90;;;;;;5039536;28;20120;-74
2021/12/26 05:49:59;;;;;;;3.85;2.00;;;-6.70;99.90;;;;;;5029973;28;20132;-76
2021/12/26 05:52:26;;;;;;;5.55;1.90;;;-6.70;99.90;;;;;;5063974;28;20135;-74
2021/12/26 05:54:51;;;;;;;7.88;2.13;;;-6.60;99.90;;;;;;5032872;28;20055;-74
2021/12/26 05:57:18;;;;;;;5.47;2.13;;;-6.60;99.90;;;;;;5045655;28;20040;-76
2021/12/26 05:59:44;;;;;;;4.28;2.40;;;-6.60;99.90;;;;;;5045331;28;20391;-74
2021/12/26 06:02:10;;;;;;;8.98;2.05;;;-6.60;99.90;;;;;;5043562;28;21282;-75
2021/12/26 06:04:36;;;;;;;5.03;2.30;;;-6.50;99.90;;;;;;5041653;28;20041;-74
2021/12/26 06:07:02;;;;;;;6.40;2.88;;;-6.50;99.90;;;;;;5078436;28;20042;-76
2021/12/26 06:09:28;;;;;;;4.90;2.28;;;-6.60;99.90;;;;;;5065455;28;20072;-74
2021/12/26 06:11:53;;;;;;;3.83;2.28;;;-6.50;99.90;;;;;;5041091;28;20048;-76
2021/12/26 06:14:19;;;;;;;3.40;1.83;;;-6.50;99.90;;;;;;5067301;28;20098;-75
2021/12/26 06:16:45;;;;;;;2.65;1.45;;;-6.50;99.90;;;;;;5046525;28;20059;-75
2021/12/26 06:19:10;;;;;;;2.70;1.67;;;-6.50;99.90;;;;;;5062500;28;20112;-74
2021/12/26 06:21:37;;;;;;;2.72;1.63;;;-6.50;99.90;;;;;;5073036;28;20499;-74
2021/12/26 06:24:02;;;;;;;7.18;1.95;;;-6.50;99.90;;;;;;5042678;28;20039;-75
2021/12/26 06:26:29;;;;;;;7.63;2.20;;;-6.50;99.90;;;;;;5050774;28;20053;-74
2021/12/26 06:28:55;;;;;;;3.20;1.70;;;-6.50;99.90;;;;;;5042633;28;20040;-75
2021/12/26 06:31:20;;;;;;;4.57;2.00;;;-6.40;99.90;;;;;;5079830;28;20097;-74
2021/12/26 06:33:46;;;;;;;4.88;2.50;;;-6.40;99.90;;;;;;5050216;28;20037;-77
2021/12/26 06:36:14;;;;;;;7.50;1.92;;;-6.40;99.90;;;;;;5050010;28;20029;-78
2021/12/26 06:38:41;;;;;;;3.08;2.05;;;-6.40;99.90;;;;;;5037773;28;20033;-75
2021/12/26 06:41:08;;;;;;;7.07;2.45;;;-6.40;99.90;;;;;;5078204;28;20041;-74
2021/12/26 06:43:38;;;;;;;6.05;2.55;;;-6.40;99.90;;;;;;5047323;28;20508;-76
2021/12/26 06:46:04;;;;;;;1.98;1.38;;;-6.40;99.90;;;;;;5012378;28;20484;-76
2021/12/26 06:48:31;;;;;;;3.25;1.83;;;-6.40;99.90;;;;;;5073198;28;20041;-74
2021/12/26 06:50:56;;;;;;;5.55;2.40;;;-6.40;99.90;;;;;;5025291;28;20060;-73
2021/12/26 06:53:22;;;;;;;3.83;2.00;;;-6.40;99.90;;;;;;5017221;28;20054;-75
2021/12/26 06:55:48;;;;;;;5.22;2.45;;;-6.40;99.90;;;;;;5000449;28;20065;-76
2021/12/26 06:58:15;;;;;;;4.70;1.50;;;-6.40;99.90;;;;;;5036674;28;20044;-75
2021/12/26 07:00:41;;;;;;;3.20;1.83;;;-6.30;99.90;;;;;;5052201;28;20037;-75
2021/12/26 07:03:07;;;;;;;6.32;2.50;;;-6.20;99.90;;;;;;5040636;28;20365;-75
2021/12/26 07:05:33;;;;;;;5.90;2.50;;;-6.20;99.90;;;;;;5062047;28;20358;-75
2021/12/26 07:07:58;;;;;;;4.32;2.13;;;-6.20;99.90;;;;;;5072082;28;20047;-73
2021/12/26 07:10:24;;;;;;;5.63;2.03;;;-6.20;99.90;;;;;;5065891;28;20400;-75
2021/12/26 07:12:50;;;;;;;8.25;2.83;;;-6.20;99.90;;;;;;5062471;28;20064;-75
2021/12/26 07:15:16;;;;;;;3.13;2.08;;;-6.20;99.90;;;;;;5028686;28;20127;-75
2021/12/26 07:17:42;;;;;;;5.10;2.45;;;-5.90;99.90;;;;;;5076865;28;20029;-74
2021/12/26 07:20:11;;;;;;;3.95;2.05;;;-6.00;99.90;;;;;;5056296;28;20173;-74
2021/12/26 07:22:37;;;;;;;5.88;2.33;;;-6.10;99.90;;;;;;5057449;28;20441;-76
2021/12/26 07:25:05;;;;;;;4.95;2.33;;;-6.10;99.90;;;;;;5001739;28;20053;-75
2021/12/26 07:27:31;;;;;;;7.43;2.60;;;-6.10;99.90;;;;;;5022525;28;20052;-76
2021/12/26 07:29:58;;;;;;;3.75;2.60;;;-6.20;99.90;;;;;;5045526;28;20029;-75
2021/12/26 07:32:25;;;;;;;4.88;2.40;;;-6.20;99.90;;;;;;5042834;28;20104;-72
2021/12/26 07:34:51;;;;;;;3.80;2.33;;;-6.20;99.90;;;;;;5017793;28;20371;-73
2021/12/26 07:37:17;;;;;;;4.80;2.35;;;-6.20;99.90;;;;;;5040071;28;20037;-75
2021/12/26 07:39:43;;;;;;;5.47;2.47;;;-6.20;99.90;;;;;;5067870;28;20037;-76
2021/12/26 07:42:09;;;;;;;4.13;2.38;;;-6.20;99.90;;;;;;5087782;28;20135;-73
2021/12/26 07:44:35;;;;;;;7.35;2.55;;;-6.20;99.90;;;;;;5088369;28;20062;-76
2021/12/26 07:47:01;;;;;;;4.75;2.50;;;-6.30;99.90;;;;;;5064760;28;20033;-74
2021/12/26 07:49:27;;;;;;;6.53;2.78;;;-6.20;99.90;;;;;;5070729;28;20453;-75
2021/12/26 07:51:53;;;;;;;9.88;2.35;;;-6.20;99.90;;;;;;5035078;28;20042;-76
2021/12/26 07:54:22;;;;;;;3.85;2.22;;;-6.20;99.90;;;;;;5071378;28;20030;-74
2021/12/26 07:56:47;;;;;;;6.63;2.70;;;-6.20;99.90;;;;;;5038070;28;20041;-75
2021/12/26 07:59:13;;;;;;;4.57;2.40;;;-6.20;99.90;;;;;;5066195;28;20087;-75
2021/12/26 08:01:40;;;;;;;5.85;2.47;;;-6.20;99.90;;;;;;5020281;28;20417;-74
2021/12/26 08:04:09;;;;;;;5.45;2.60;;;-6.20;99.90;;;;;;5052432;28;20435;-74
2021/12/26 08:06:34;;;;;;;4.05;2.63;;;-6.10;99.90;;;;;;5060695;28;20052;-74
2021/12/26 08:09:00;;;;;;;6.00;3.00;;;-6.10;99.90;;;;;;5047103;28;20037;-74
2021/12/26 08:11:26;;;;;;;6.80;2.53;;;-6.10;99.90;;;;;;5044575;28;20507;-76
2021/12/26 08:13:51;;;;;;;5.18;3.17;;;-6.20;99.90;;;;;;5070443;28;20087;-77
2021/12/26 08:16:18;;;;;;;5.80;3.15;;;-6.20;99.90;;;;;;5068096;28;20069;-78
2021/12/26 08:18:44;;;;;;;5.80;3.20;;;-6.10;99.90;;;;;;5042057;28;20037;-75
2021/12/26 08:21:09;;;;;;;5.70;2.85;;;-6.10;99.90;;;;;;5059601;28;20041;-77
2021/12/26 08:23:35;;;;;;;5.03;2.53;;;-6.20;99.90;;;;;;5036994;28;20107;-78
2021/12/26 08:26:02;;;;;;;6.68;3.20;;;-6.20;99.90;;;;;;5033072;28;20045;-77
2021/12/26 08:28:28;;;;;;;5.18;2.70;;;-6.10;99.90;;;;;;5044237;28;20053;-76
2021/12/26 08:30:54;;;;;;;6.60;3.03;;;-6.10;99.90;;;;;;5071330;28;20048;-76
2021/12/26 08:33:20;;;;;;;4.72;2.58;;;-6.00;99.90;;;;;;5048237;28;20095;-78
2021/12/26 08:35:48;;;;;;;4.90;2.28;;;-5.90;99.90;;;;;;5053709;28;20489;-78
2021/12/26 08:38:20;;;;;;;9.35;3.28;;;-6.00;99.90;;;;;;5017282;28;20133;-76
2021/12/26 08:40:47;;;;;;;2.83;1.77;;;-5.90;99.90;;;;;;5055523;28;20536;-78
2021/12/26 08:43:12;;;;;;;5.15;3.35;;;-5.90;99.90;;;;;;4986232;28;20052;-77
2021/12/26 08:45:38;;;;;;;5.50;2.58;;;-5.80;99.90;;;;;;5027758;28;20042;-76
2021/12/26 08:48:04;;;;;;;6.40;2.88;;;-5.80;99.90;;;;;;5015625;28;20045;-78
2021/12/26 08:50:30;;;;;;;5.97;3.10;;;-5.10;99.90;;;;;;4984169;28;20066;-77
2021/12/26 08:52:57;;;;;;;7.32;3.78;;;-5.80;99.90;;;;;;5021439;28;20096;-79
2021/12/26 08:55:25;;;;;;;4.78;3.03;;;-5.50;99.90;;;;;;4990998;28;20034;-83
2021/12/26 08:57:52;;;;;;;7.20;2.95;;;-5.60;99.90;;;;;;5018160;28;20038;-77
2021/12/26 09:00:19;;;;;;;6.32;3.38;;;-5.60;99.90;;;;;;5023067;28;20065;-78
2021/12/26 09:02:45;;;;;;;7.30;3.72;;;-5.50;99.90;;;;;;4978603;28;20329;-76
2021/12/26 09:05:11;;;;;;;9.00;3.53;;;-5.50;99.90;;;;;;5013183;28;20042;-75
2021/12/26 09:07:38;;;;;;;6.03;3.00;;;-5.60;99.90;;;;;;4989605;28;20121;-77
2021/12/26 09:10:04;;;;;;;6.28;2.85;;;-5.50;99.90;;;;;;4980947;28;20039;-78
2021/12/26 09:12:30;;;;;;;6.00;3.10;;;-5.40;99.90;;;;;;5002012;28;20037;-76
2021/12/26 09:14:56;;;;;;;5.00;3.33;;;-4.00;99.90;;;;;;5025679;28;20033;-76
2021/12/26 09:17:22;;;;;;;6.13;3.08;;;-4.60;99.90;;;;;;5017280;28;20053;-73
2021/12/26 09:19:48;;;;;;;6.30;3.40;;;-5.00;99.90;;;;;;4993085;28;20034;-79
2021/12/26 09:22:15;;;;;;;7.40;4.00;;;-5.00;99.90;;;;;;4982144;28;20050;-77
2021/12/26 09:24:42;;;;;;;6.13;2.90;;;-4.20;99.90;;;;;;4975104;28;20037;-77
2021/12/26 09:27:08;;;;;;;5.50;2.83;;;-5.10;99.90;;;;;;5020586;28;20488;-79
2021/12/26 09:29:35;;;;;;;5.05;3.00;;;-5.10;99.90;;;;;;4987659;28;20442;-76
2021/12/26 09:32:02;;;;;;;8.63;3.15;;;-5.10;99.90;;;;;;4993947;28;20054;-78
2021/12/26 09:34:30;;;;;;;5.72;2.95;;;-5.00;99.90;;;;;;5014994;28;20346;-78
2021/12/26 09:36:56;;;;;;;7.28;3.97;;;-5.00;99.90;;;;;;4991736;28;20042;-76
2021/12/26 09:39:23;;;;;;;6.78;3.05;;;-4.90;99.90;;;;;;5005498;28;20450;-76
2021/12/26 09:41:50;;;;;;;6.40;3.20;;;-4.80;99.90;;;;;;5023670;28;20053;-76
2021/12/26 09:44:16;;;;;;;7.63;3.50;;;-4.70;99.90;;;;;;5016772;28;20124;-75
2021/12/26 09:46:42;;;;;;;5.15;3.35;;;-4.80;99.90;;;;;;5036165;28;20041;-75
2021/12/26 09:49:08;;;;;;;7.78;3.38;;;-4.60;99.90;;;;;;5017092;28;20045;-75
2021/12/26 09:51:34;;;;;;;5.93;3.30;;;-4.60;99.90;;;;;;5025858;28;20488;-74
2021/12/26 09:54:00;;;;;;;5.05;3.13;;;-4.20;99.90;;;;;;5035605;28;20040;-75
2021/12/26 09:56:26;;;;;;;7.85;3.17;;;-4.50;99.90;;;;;;5036222;28;20049;-77
2021/12/26 09:58:57;;;;;;;7.63;3.40;;;-4.40;99.90;;;;;;5035138;28;20045;-75
2021/12/26 10:01:28;;;;;;;3.10;2.08;;;-4.40;99.90;;;;;;5047832;28;20056;-76
2021/12/26 10:03:53;;;;;;;5.35;2.88;;;-4.30;99.90;;;;;;5062460;28;20049;-78
2021/12/26 10:06:19;;;;;;;10.50;3.75;;;-3.80;99.90;;;;;;5032181;28;20447;-75
2021/12/26 10:09:03;;;;;;;8.75;3.33;;;-4.20;99.90;;;;;;5057801;28;20071;-76
2021/12/26 10:11:33;;;;;;;5.78;2.97;;;-4.10;99.90;;;;;;5064135;28;20053;-76
2021/12/26 10:14:29;;;;;;;7.65;3.78;;;-4.10;99.90;;;;;;5026550;28;20088;-75
2021/12/26 10:17:17;;;;;;;6.05;3.13;;;-3.90;99.90;;;;;;5059031;28;20045;-79
2021/12/26 10:19:47;;;;;;;5.70;2.90;;;-3.90;99.90;;;;;;5056817;28;20076;-76
2021/12/26 10:22:25;;;;;;;8.85;3.22;;;-3.80;99.90;;;;;;5030159;28;21215;-76
2021/12/26 10:24:52;;;;;;;4.63;2.85;;;-3.70;99.90;;;;;;5029525;28;20136;-77
2021/12/26 10:27:28;;;;;;;5.53;2.97;;;-3.70;99.90;;;;;;5029033;28;20377;-76
2021/12/26 10:30:00;;;;;;;6.70;3.83;;;-3.60;99.90;;;;;;5025241;28;20037;-76
2021/12/26 10:32:34;;;;;;;5.45;3.45;;;-3.60;99.90;;;;;;5055320;28;20472;-76
2021/12/26 10:35:20;;;;;;;11.40;3.80;;;-3.50;99.90;;;;;;5027036;28;20072;-77
2021/12/26 10:37:48;;;;;;;6.63;3.08;;;-3.40;99.90;;;;;;5044514;28;20419;-78
2021/12/26 10:40:22;;;;;;;5.35;3.20;;;-3.30;99.90;;;;;;5043753;28;20036;-78
2021/12/26 10:42:54;;;;;;;5.93;3.15;;;-2.60;99.90;;;;;;5043720;28;20056;-78
2021/12/26 10:45:27;;;;;;;8.48;3.70;;;-3.20;99.90;;;;;;5016508;28;20042;-78
2021/12/26 10:47:55;;;;;;;4.72;2.70;;;-3.10;99.90;;;;;;5060352;28;20041;-77
2021/12/26 10:50:24;;;;;;;6.70;3.42;;;-3.00;99.90;;;;;;5023502;28;20044;-78
2021/12/26 10:52:59;;;;;;;8.00;3.83;;;-3.00;99.90;;;;;;5025856;28;20037;-79
2021/12/26 10:55:40;;;;;;;4.82;2.90;;;-2.90;99.90;;;;;;5028220;28;20057;-79
2021/12/26 10:58:10;;;;;;;7.45;3.17;;;-2.80;99.90;;;;;;5049946;28;20472;-78
2021/12/26 11:00:43;;;;;;;6.75;3.55;;;-2.70;99.90;;;;;;5024599;28;20672;-77
2021/12/26 11:03:12;;;;;;;5.72;2.95;;;-2.60;99.90;;;;;;5033886;28;20131;-76
2021/12/26 11:05:43;;;;;;;8.65;3.40;;;-2.50;99.90;;;;;;5022633;28;20045;-77
2021/12/26 11:08:17;;;;;;;5.03;2.97;;;-2.50;99.90;;;;;;5025075;28;20057;-76
2021/12/26 11:10:52;;;;;;;14.27;2.40;;;-2.40;99.90;;;;;;5047226;28;20044;-77
2021/12/26 11:13:25;;;;;;;;;;;-2.40;99.90;;;;;;5034996;28;20086;-77
2021/12/26 11:15:55;;;;;;;5.28;2.92;;;-2.30;99.90;;;;;;5009234;28;19921;-77
2021/12/26 11:18:22;;;;;;;6.72;3.13;;;-2.20;99.90;;;;;;5016477;28;20052;-77
2021/12/26 11:20:53;;;;;;;7.35;3.38;;;-2.10;99.90;;;;;;5075609;28;20036;-77
2021/12/26 11:23:21;;;;;;;7.35;2.97;;;-2.10;99.90;;;;;;5033164;28;20041;-77
2021/12/26 11:25:55;;;;;;;4.63;2.45;;;-2.10;99.90;;;;;;5050381;28;20116;-77
2021/12/26 11:28:32;;;;;;;7.63;3.30;;;-2.00;99.90;;;;;;5032576;28;20080;-77
2021/12/26 11:31:03;;;;;;;6.20;2.40;;;-1.90;99.90;;;;;;5068523;28;20059;-77
2021/12/26 11:33:30;;;;;;;4.65;2.65;;;-1.90;99.90;;;;;;5088858;28;20860;-77
2021/12/26 11:35:57;;;;;;;6.93;3.47;;;-1.80;99.90;;;;;;5037590;28;20500;-77
2021/12/26 11:38:25;;;;;;;9.40;3.70;;;-1.80;99.90;;;;;;5033623;28;20136;-77
2021/12/26 11:40:57;;;;;;;5.90;3.50;;;-1.80;99.90;;;;;;5031262;28;20479;-77
2021/12/26 11:43:54;;;;;;;7.43;2.80;;;-1.60;99.90;;;;;;5021600;28;20138;-77
2021/12/26 11:46:40;;;;;;;6.78;3.22;;;-1.80;99.90;;;;;;5031651;28;20132;-77
2021/12/26 11:49:43;;;;;;;11.02;3.47;;;-1.60;99.90;;;;;;5052053;28;20524;-80
2021/12/26 11:52:27;;;;;;;5.47;2.85;;;-1.50;99.90;;;;;;5070450;28;20052;-80
2021/12/26 11:55:06;;;;;;;4.15;2.65;;;-1.50;99.90;;;;;;5052640;28;20048;-79
2021/12/26 11:57:56;;;;;;;5.60;3.05;;;-1.50;99.90;;;;;;5034638;28;20037;-79
2021/12/26 12:00:34;;;;;;;6.20;3.70;;;-1.40;99.90;;;;;;5035108;28;20033;-80
2021/12/26 12:03:03;;;;;;;4.40;2.78;;;-1.40;99.90;;;;;;5024864;28;20115;-79
2021/12/26 12:05:40;;;;;;;7.60;3.55;;;-1.30;99.90;;;;;;5046491;28;20157;-80
2021/12/26 12:08:14;;;;;;;7.82;3.75;;;-1.30;99.90;;;;;;5061122;28;20044;-79
2021/12/26 12:10:52;;;;;;;7.97;3.92;;;-1.20;99.90;;;;;;5017284;28;20436;-80
2021/12/26 12:13:27;;;;;;;10.82;3.65;;;-1.20;99.90;;;;;;5033280;28;20101;-80
2021/12/26 12:16:03;;;;;;;;;;;-1.10;99.90;;;;;;5024783;28;20041;-79
2021/12/26 12:18:59;;;;;;;6.13;3.65;;;-1.10;99.90;;;;;;5032746;28;19917;-80
2021/12/26 12:21:33;;;;;;;6.00;3.28;;;-2.00;99.90;;;;;;5033139;28;20042;-78
2021/12/26 12:24:17;;;;;;;5.23;2.90;;;-1.10;99.90;;;;;;5041104;28;20033;-76
2021/12/26 12:26:44;;;;;;;7.85;3.78;;;-1.00;99.90;;;;;;5023237;28;20053;-76
2021/12/26 12:29:32;;;;;;;8.85;4.75;;;-0.90;99.90;;;;;;5005615;28;20045;-77
2021/12/26 12:32:06;;;;;;;6.60;3.78;;;-0.80;99.90;;;;;;5020832;28;20073;-76
2021/12/26 12:34:44;;;;;;;6.30;3.15;;;-0.90;99.90;;;;;;5041584;28;20057;-76
2021/12/26 12:37:10;;;;;;;6.45;3.28;;;-0.80;99.90;;;;;;5027044;28;20041;-75
2021/12/26 12:39:36;;;;;;;5.50;3.17;;;-0.70;99.90;;;;;;5060574;28;20048;-77
2021/12/26 12:42:01;;;;;;;5.75;3.50;;;-0.80;99.90;;;;;;5024623;28;20061;-78
2021/12/26 12:44:35;;;;;;;5.93;2.67;;;-0.80;99.90;;;;;;5065363;28;20041;-79
2021/12/26 12:47:05;;;;;;;12.30;3.60;;;-0.40;99.90;;;;;;5040880;28;20396;-78
2021/12/26 12:50:08;;;;;;;6.65;3.03;;;-0.80;99.90;;;;;;5047663;28;20041;-79
2021/12/26 12:52:44;;;;;;;5.05;3.15;;;-1.00;99.90;;;;;;5059623;28;20049;-80
2021/12/26 12:55:17;;;;;;;9.13;3.65;;;-0.70;99.90;;;;;;5031761;28;20052;-80
2021/12/26 12:57:48;;;;;;;6.00;3.25;;;-0.80;99.90;;;;;;5029121;28;20073;-79
2021/12/26 13:00:26;;;;;;;9.88;3.63;;;-0.30;99.90;;;;;;5028936;28;20731;-74